Time;durP1;ratioP1;P1;durP2;ratioP2;P2;SDS_P1;SDS_P2;PMS_P1;PMS_P2;Temp;Humidity;BMP_temperature;BMP_pressure;BME280_temperature;BME280_humidity;BME280_pressure;Samples;Min_cycle;Max_cycle;Signal;HPM_P1;HPM_P2
2023/05/14 00:01:38;;;;;;;15.95;8.75;;;14.40;99.90;;;;;;5057435;28;20465;-86
2023/05/14 00:08:07;;;;;;;12.85;8.57;;;14.40;99.90;;;;;;4968216;23;20143;-72
2023/05/14 00:10:33;;;;;;;15.77;8.93;;;14.40;99.90;;;;;;4965511;28;20113;-86
2023/05/14 00:12:59;;;;;;;16.38;8.90;;;14.30;99.90;;;;;;4980146;28;20381;-80
2023/05/14 00:15:25;;;;;;;18.10;9.98;;;14.30;99.90;;;;;;4999511;28;20041;-86
2023/05/14 00:17:51;;;;;;;19.95;9.52;;;14.30;99.90;;;;;;4999181;28;20023;-85
2023/05/14 00:20:17;;;;;;;18.35;9.85;;;14.30;99.90;;;;;;4998093;28;20047;-79
2023/05/14 00:22:43;;;;;;;15.55;9.90;;;14.30;99.90;;;;;;4998427;28;20030;-84
2023/05/14 00:25:09;;;;;;;14.80;9.38;;;14.30;99.90;;;;;;4998913;28;20437;-72
2023/05/14 00:27:36;;;;;;;14.85;8.52;;;14.30;99.90;;;;;;4999845;28;20015;-74
2023/05/14 00:30:05;;;;;;;13.30;8.45;;;14.30;99.90;;;;;;4982064;28;20084;-86
2023/05/14 00:32:31;;;;;;;13.95;8.45;;;14.30;99.90;;;;;;4982623;28;20042;-80
2023/05/14 00:34:57;;;;;;;16.13;8.75;;;14.30;99.90;;;;;;4995544;28;20061;-84
2023/05/14 00:37:23;;;;;;;14.65;8.90;;;14.20;99.90;;;;;;4977826;28;20437;-86
2023/05/14 00:39:49;;;;;;;13.13;7.80;;;14.20;99.90;;;;;;4995397;28;20374;-72
2023/05/14 00:42:15;;;;;;;15.80;9.18;;;14.20;99.90;;;;;;4995052;28;20508;-86
2023/05/14 00:44:40;;;;;;;14.73;8.25;;;14.20;99.90;;;;;;4994454;28;20077;-84
2023/05/14 00:47:07;;;;;;;15.63;8.40;;;14.20;99.90;;;;;;4996357;28;20031;-83
2023/05/14 00:49:38;;;;;;;13.07;8.13;;;14.10;99.90;;;;;;4961841;28;20125;-75
2023/05/14 00:52:05;;;;;;;14.30;9.45;;;14.20;99.90;;;;;;4977305;28;20046;-85
2023/05/14 00:54:49;;;;;;;12.80;8.15;;;14.20;99.90;;;;;;4996702;28;20031;-87
2023/05/14 00:57:15;;;;;;;17.48;9.73;;;14.10;99.90;;;;;;4995755;28;20114;-73
2023/05/14 00:59:41;;;;;;;13.02;9.00;;;14.10;99.90;;;;;;4995738;28;20081;-75
2023/05/14 01:02:07;;;;;;;14.38;9.43;;;14.10;99.90;;;;;;4993397;28;20121;-87
2023/05/14 01:04:34;;;;;;;14.82;9.25;;;14.10;99.90;;;;;;4997908;28;20573;-82
2023/05/14 01:07:14;;;;;;;14.00;9.32;;;14.10;99.90;;;;;;4977591;28;20058;-84
2023/05/14 01:09:48;;;;;;;13.85;9.27;;;14.10;99.90;;;;;;4995033;28;20065;-73
2023/05/14 01:12:41;;;;;;;13.40;9.27;;;14.10;99.90;;;;;;4976234;28;20093;-72
2023/05/14 01:15:11;;;;;;;14.05;8.80;;;14.10;99.90;;;;;;5003271;28;20034;-77
2023/05/14 01:17:57;;;;;;;14.90;8.82;;;14.10;99.90;;;;;;4993421;28;20038;-75
2023/05/14 01:20:25;;;;;;;18.83;9.55;;;14.10;99.90;;;;;;4984730;28;20524;-78
2023/05/14 01:22:51;;;;;;;15.55;9.70;;;14.10;99.90;;;;;;4993233;28;20351;-80
2023/05/14 01:25:17;;;;;;;15.55;9.60;;;14.10;99.90;;;;;;4974850;28;20034;-76
2023/05/14 01:28:14;;;;;;;14.95;9.48;;;14.20;99.90;;;;;;4975355;28;20026;-77
2023/05/14 01:30:54;;;;;;;14.32;8.80;;;14.10;99.90;;;;;;4980175;28;20098;-74
2023/05/14 01:33:23;;;;;;;16.23;9.43;;;14.20;99.90;;;;;;4974714;28;20482;-87
2023/05/14 01:35:52;;;;;;;12.75;8.60;;;14.20;99.90;;;;;;4993175;28;20093;-76
2023/05/14 01:38:20;;;;;;;12.75;8.73;;;14.10;99.90;;;;;;4975868;28;20034;-72
2023/05/14 01:40:47;;;;;;;12.45;8.18;;;14.10;99.90;;;;;;4974959;28;20038;-80
2023/05/14 01:43:14;;;;;;;15.23;9.88;;;14.10;99.90;;;;;;4976727;28;20079;-82
2023/05/14 01:45:41;;;;;;;13.90;8.23;;;14.10;99.90;;;;;;4976093;28;20029;-81
2023/05/14 01:48:07;;;;;;;14.07;9.57;;;14.10;99.90;;;;;;4976012;28;20041;-75
2023/05/14 01:50:33;;;;;;;12.77;8.13;;;14.20;99.90;;;;;;4994714;28;20386;-73
2023/05/14 01:52:59;;;;;;;12.80;7.63;;;14.20;99.90;;;;;;4993429;28;20037;-74
2023/05/14 01:55:26;;;;;;;11.10;7.53;;;14.10;99.90;;;;;;4979009;28;20058;-76
2023/05/14 01:57:53;;;;;;;15.35;7.85;;;14.10;99.90;;;;;;4997100;28;20031;-72
2023/05/14 02:00:19;;;;;;;13.90;8.10;;;14.10;99.90;;;;;;4998240;28;20038;-74
2023/05/14 02:02:45;;;;;;;13.90;7.50;;;14.10;99.90;;;;;;4997910;28;20085;-81
2023/05/14 02:05:12;;;;;;;14.00;8.60;;;14.10;99.90;;;;;;4997169;28;20030;-78
2023/05/14 02:07:38;;;;;;;14.25;8.45;;;14.10;99.90;;;;;;4995539;28;20050;-73
2023/05/14 02:10:04;;;;;;;11.40;8.05;;;14.00;99.90;;;;;;4997388;28;20018;-79
2023/05/14 02:12:30;;;;;;;12.57;7.30;;;14.00;99.90;;;;;;4981459;28;20109;-83
2023/05/14 02:14:56;;;;;;;12.73;8.10;;;14.00;99.90;;;;;;4985269;28;20072;-81
2023/05/14 02:17:24;;;;;;;13.05;8.02;;;13.90;99.90;;;;;;4984366;28;20102;-78
2023/05/14 02:19:50;;;;;;;10.55;7.00;;;13.90;99.90;;;;;;4984241;28;20496;-77
2023/05/14 02:22:16;;;;;;;10.27;6.55;;;13.90;99.90;;;;;;5000634;28;20015;-81
2023/05/14 02:24:42;;;;;;;12.23;7.65;;;13.90;99.90;;;;;;4984637;28;20038;-85
2023/05/14 02:27:07;;;;;;;14.50;7.35;;;13.90;99.90;;;;;;5008182;28;20050;-80
2023/05/14 02:29:33;;;;;;;11.93;7.72;;;13.80;99.90;;;;;;4985018;28;20505;-73
2023/05/14 02:31:59;;;;;;;15.02;8.63;;;13.80;99.90;;;;;;4986985;28;20402;-81
2023/05/14 02:34:25;;;;;;;12.98;7.38;;;13.80;99.90;;;;;;5001704;28;20080;-86
2023/05/14 02:36:51;;;;;;;10.68;6.88;;;13.70;99.90;;;;;;5001041;28;20185;-73
2023/05/14 02:39:17;;;;;;;11.20;7.05;;;13.70;99.90;;;;;;4996809;28;20034;-73
2023/05/14 02:41:44;;;;;;;11.65;7.07;;;13.70;99.90;;;;;;4996284;28;20088;-79
2023/05/14 02:44:10;;;;;;;13.30;7.70;;;13.70;99.90;;;;;;4976921;28;20529;-71
2023/05/14 02:46:36;;;;;;;12.30;7.50;;;13.60;99.90;;;;;;4995201;28;20041;-72
2023/05/14 02:49:02;;;;;;;14.73;7.43;;;13.60;99.90;;;;;;4977742;28;20382;-80
2023/05/14 02:51:27;;;;;;;11.35;7.22;;;13.60;99.90;;;;;;4995500;28;20058;-72
2023/05/14 02:53:53;;;;;;;13.68;7.90;;;13.60;99.90;;;;;;4980576;28;20035;-77
2023/05/14 02:56:20;;;;;;;9.38;6.82;;;13.60;99.90;;;;;;4983390;28;20433;-83
2023/05/14 02:58:45;;;;;;;9.88;6.50;;;13.50;99.90;;;;;;4979974;28;20031;-77
2023/05/14 03:01:11;;;;;;;11.98;7.13;;;13.50;99.90;;;;;;4982895;28;20073;-86
2023/05/14 03:03:37;;;;;;;12.52;7.30;;;13.50;99.90;;;;;;4981663;28;20023;-76
2023/05/14 03:06:04;;;;;;;11.38;6.72;;;13.50;99.90;;;;;;4977674;28;20042;-73
2023/05/14 03:08:30;;;;;;;12.60;7.55;;;13.50;99.90;;;;;;4996782;28;20030;-85
2023/05/14 03:10:56;;;;;;;10.95;6.60;;;13.50;99.90;;;;;;4995863;28;20177;-74
2023/05/14 03:13:22;;;;;;;10.95;6.53;;;13.50;99.90;;;;;;4982514;28;20105;-84
2023/05/14 03:15:48;;;;;;;10.02;6.63;;;13.50;99.90;;;;;;4983195;28;20037;-75
2023/05/14 03:18:14;;;;;;;12.25;7.03;;;13.40;99.90;;;;;;4988635;28;20023;-82
2023/05/14 03:20:40;;;;;;;9.30;5.68;;;13.40;99.90;;;;;;4996989;28;20023;-74
2023/05/14 03:23:06;;;;;;;9.88;6.63;;;13.50;99.90;;;;;;4997472;28;20022;-75
2023/05/14 03:25:33;;;;;;;11.20;6.78;;;13.50;99.90;;;;;;4999223;28;20046;-86
2023/05/14 03:27:59;;;;;;;8.65;6.03;;;13.40;99.90;;;;;;4997887;28;20030;-79
2023/05/14 03:30:25;;;;;;;9.95;6.15;;;13.50;99.90;;;;;;4998787;28;20033;-80
2023/05/14 03:32:51;;;;;;;11.10;6.45;;;13.50;99.90;;;;;;4997887;28;20034;-84
2023/05/14 03:35:17;;;;;;;10.35;6.63;;;13.40;99.90;;;;;;4997781;28;20091;-74
2023/05/14 03:37:42;;;;;;;10.43;5.82;;;13.40;99.90;;;;;;4996730;28;20466;-82
2023/05/14 03:40:09;;;;;;;8.90;5.68;;;13.40;99.90;;;;;;4979689;28;20041;-81
2023/05/14 03:42:35;;;;;;;10.15;6.25;;;13.40;99.90;;;;;;4995402;28;20374;-85
2023/05/14 03:45:02;;;;;;;8.48;5.50;;;13.40;99.90;;;;;;4997664;28;20023;-84
2023/05/14 03:47:28;;;;;;;10.32;5.50;;;13.30;99.90;;;;;;4979283;28;20034;-85
2023/05/14 03:49:55;;;;;;;8.98;5.72;;;13.30;99.90;;;;;;4984924;28;20037;-82
2023/05/14 03:52:22;;;;;;;9.10;5.38;;;13.30;99.90;;;;;;4972553;28;20071;-82
2023/05/14 03:54:47;;;;;;;11.07;6.00;;;13.30;99.90;;;;;;5002944;28;20027;-72
2023/05/14 03:57:14;;;;;;;8.60;5.20;;;13.30;99.90;;;;;;5000017;28;20014;-77
2023/05/14 03:59:40;;;;;;;12.75;6.05;;;13.20;99.90;;;;;;4996245;28;20429;-87
2023/05/14 04:02:06;;;;;;;11.05;5.47;;;13.10;99.90;;;;;;4997519;28;20389;-86
2023/05/14 04:04:32;;;;;;;7.18;5.25;;;13.10;99.90;;;;;;4999485;28;20030;-86
2023/05/14 04:06:58;;;;;;;10.05;6.40;;;13.10;99.90;;;;;;4995817;28;20121;-83
2023/05/14 04:09:27;;;;;;;10.05;5.80;;;13.10;99.90;;;;;;4996891;28;20030;-74
2023/05/14 04:11:53;;;;;;;16.80;6.45;;;13.10;99.90;;;;;;4980747;28;20034;-83
2023/05/14 04:14:19;;;;;;;9.73;5.95;;;13.00;99.90;;;;;;4998235;28;20048;-72
2023/05/14 04:16:44;;;;;;;7.90;5.07;;;13.10;99.90;;;;;;4994774;28;20069;-80
2023/05/14 04:19:11;;;;;;;10.07;4.90;;;13.00;99.90;;;;;;4979560;28;20037;-83
2023/05/14 04:21:36;;;;;;;8.40;5.25;;;13.00;99.90;;;;;;4977956;28;20022;-84
2023/05/14 04:24:02;;;;;;;8.55;5.65;;;13.00;99.90;;;;;;4999661;28;20110;-81
2023/05/14 04:26:28;;;;;;;12.25;6.43;;;13.00;99.90;;;;;;4997853;28;20077;-83
2023/05/14 04:28:54;;;;;;;11.23;4.60;;;13.00;99.90;;;;;;4996081;28;20054;-84
2023/05/14 04:31:20;;;;;;;7.50;4.63;;;13.00;99.90;;;;;;4995700;28;20080;-80
2023/05/14 04:33:46;;;;;;;9.15;4.80;;;12.90;99.90;;;;;;4995673;28;20037;-87
2023/05/14 04:36:12;;;;;;;6.82;4.40;;;12.90;99.90;;;;;;4995056;28;20522;-81
2023/05/14 04:38:37;;;;;;;10.38;4.90;;;12.90;99.90;;;;;;5002544;28;20128;-77
2023/05/14 04:41:03;;;;;;;11.00;5.30;;;12.90;99.90;;;;;;5002729;28;20022;-82
2023/05/14 04:43:29;;;;;;;10.02;5.38;;;12.90;99.90;;;;;;4996064;28;20033;-81
2023/05/14 04:45:55;;;;;;;8.00;4.82;;;12.90;99.90;;;;;;4994738;28;20031;-83
2023/05/14 04:48:21;;;;;;;9.38;5.32;;;12.90;99.90;;;;;;4993724;28;20030;-82
2023/05/14 04:50:47;;;;;;;8.68;4.57;;;12.90;99.90;;;;;;4993544;28;20057;-77
2023/05/14 04:53:13;;;;;;;9.57;6.10;;;12.90;99.90;;;;;;4992661;28;20045;-85
2023/05/14 04:55:38;;;;;;;8.05;5.07;;;12.90;99.90;;;;;;4994240;28;20018;-79
2023/05/14 04:58:04;;;;;;;8.35;5.28;;;12.90;99.90;;;;;;4996748;28;20073;-84
2023/05/14 05:00:30;;;;;;;10.20;5.07;;;12.90;99.90;;;;;;4997940;28;20018;-83
2023/05/14 05:02:56;;;;;;;8.85;5.95;;;12.90;99.90;;;;;;4994963;28;20042;-74
2023/05/14 05:05:23;;;;;;;10.65;4.80;;;12.90;99.90;;;;;;4998753;28;20035;-78
2023/05/14 05:07:49;;;;;;;10.55;5.40;;;12.90;99.90;;;;;;4996709;28;20057;-84
2023/05/14 05:10:15;;;;;;;9.23;5.07;;;12.90;99.90;;;;;;5011145;28;20022;-78
2023/05/14 05:12:40;;;;;;;7.72;4.85;;;13.00;99.90;;;;;;4995376;28;20413;-85
2023/05/14 05:15:08;;;;;;;8.52;5.38;;;13.00;99.90;;;;;;4999236;28;20018;-83
2023/05/14 05:17:34;;;;;;;9.35;5.05;;;12.90;99.90;;;;;;4996648;28;20047;-86
2023/05/14 05:20:00;;;;;;;8.90;5.25;;;12.90;99.90;;;;;;4987009;28;20050;-72
2023/05/14 05:22:26;;;;;;;18.30;5.22;;;13.00;99.90;;;;;;4977148;28;20027;-83
2023/05/14 05:24:52;;;;;;;15.48;7.07;;;13.00;99.90;;;;;;4985492;28;20022;-73
2023/05/14 05:27:19;;;;;;;8.85;5.47;;;13.00;99.90;;;;;;4986816;28;20121;-73
2023/05/14 05:29:45;;;;;;;10.68;5.50;;;13.00;99.90;;;;;;4978992;28;20382;-84
2023/05/14 05:32:11;;;;;;;9.45;5.63;;;13.10;99.90;;;;;;4984531;28;20038;-73
2023/05/14 05:34:37;;;;;;;8.52;5.38;;;13.10;99.90;;;;;;4996904;28;20034;-73
2023/05/14 05:37:04;;;;;;;11.93;5.95;;;13.10;99.90;;;;;;4988188;28;20076;-85
2023/05/14 05:39:33;;;;;;;9.93;5.53;;;13.10;99.90;;;;;;4990165;28;20022;-77
2023/05/14 05:42:01;;;;;;;11.55;6.35;;;13.10;99.90;;;;;;4980182;28;20487;-83
2023/05/14 05:44:27;;;;;;;10.55;6.25;;;13.10;99.90;;;;;;5001672;28;20057;-83
2023/05/14 05:46:55;;;;;;;11.32;5.82;;;13.20;99.90;;;;;;5003658;28;20109;-84
2023/05/14 05:49:21;;;;;;;8.55;5.20;;;13.20;99.90;;;;;;5005794;28;20105;-87
2023/05/14 05:51:47;;;;;;;8.82;5.68;;;13.20;99.90;;;;;;5001013;28;20517;-88
2023/05/14 05:54:13;;;;;;;10.23;5.97;;;13.30;99.90;;;;;;4999621;28;20121;-81
2023/05/14 05:56:39;;;;;;;9.63;6.22;;;13.20;99.90;;;;;;4995346;28;20018;-81
2023/05/14 05:59:04;;;;;;;9.18;5.57;;;13.30;99.90;;;;;;4991337;28;20022;-88
2023/05/14 06:01:30;;;;;;;9.77;5.90;;;13.20;99.90;;;;;;4991283;28;20033;-89
2023/05/14 06:03:56;;;;;;;9.68;5.95;;;13.20;99.90;;;;;;4993586;28;20019;-87
2023/05/14 06:06:22;;;;;;;12.52;6.30;;;13.20;99.90;;;;;;4979266;28;20149;-85
2023/05/14 06:08:48;;;;;;;10.27;6.07;;;13.20;99.90;;;;;;4977681;28;20038;-77
2023/05/14 06:11:15;;;;;;;11.93;6.40;;;13.20;99.90;;;;;;4982840;28;20054;-81
2023/05/14 06:13:41;;;;;;;13.02;6.63;;;13.30;99.90;;;;;;4981103;28;20041;-73
2023/05/14 06:16:07;;;;;;;9.60;6.07;;;13.30;99.90;;;;;;4996714;28;20033;-73
2023/05/14 06:18:33;;;;;;;12.73;6.72;;;13.30;99.90;;;;;;4978610;28;20027;-86
2023/05/14 06:20:59;;;;;;;10.05;6.53;;;13.30;99.90;;;;;;4987873;28;20081;-74
2023/05/14 06:23:25;;;;;;;10.88;5.72;;;13.30;99.90;;;;;;4996855;28;20022;-84
2023/05/14 06:25:51;;;;;;;9.45;6.10;;;13.30;99.90;;;;;;4995980;28;20080;-73
2023/05/14 06:28:17;;;;;;;10.55;6.32;;;13.30;99.90;;;;;;4997447;28;20104;-73
2023/05/14 06:30:43;;;;;;;13.68;5.88;;;13.30;99.90;;;;;;4997690;28;20474;-86
2023/05/14 06:33:08;;;;;;;15.38;7.10;;;13.40;99.90;;;;;;4997923;28;20034;-80
2023/05/14 06:35:35;;;;;;;10.60;6.65;;;13.30;99.90;;;;;;4998657;28;20035;-88
2023/05/14 06:38:01;;;;;;;11.90;7.15;;;13.40;99.90;;;;;;5001542;28;20018;-86
2023/05/14 06:40:27;;;;;;;12.20;6.57;;;13.40;99.90;;;;;;4999902;28;20035;-74
2023/05/14 06:42:53;;;;;;;10.43;6.40;;;13.40;99.90;;;;;;4999453;28;20022;-87
2023/05/14 06:45:19;;;;;;;8.60;5.72;;;13.40;99.90;;;;;;4981840;28;20038;-86
2023/05/14 06:47:44;;;;;;;12.63;7.03;;;13.40;99.90;;;;;;5000057;28;20026;-84
2023/05/14 06:50:10;;;;;;;10.90;6.53;;;13.30;99.90;;;;;;4997306;28;20106;-73
2023/05/14 06:52:36;;;;;;;10.15;6.43;;;13.40;99.90;;;;;;4986777;28;20031;-87
2023/05/14 06:55:02;;;;;;;11.38;6.32;;;13.40;99.90;;;;;;4985396;28;20046;-83
2023/05/14 06:57:28;;;;;;;11.20;7.10;;;13.50;99.90;;;;;;4995781;28;20031;-83
2023/05/14 06:59:53;;;;;;;9.55;6.40;;;13.50;99.90;;;;;;4984593;28;20038;-74
2023/05/14 07:02:19;;;;;;;10.07;6.95;;;13.50;99.90;;;;;;4995380;28;20018;-84
2023/05/14 07:04:45;;;;;;;12.15;7.30;;;13.50;99.90;;;;;;4995033;28;20038;-82
2023/05/14 07:07:14;;;;;;;10.18;6.70;;;13.50;99.90;;;;;;4995605;28;20405;-77
2023/05/14 07:09:41;;;;;;;11.38;6.22;;;13.40;99.90;;;;;;4984210;28;20114;-83
2023/05/14 07:12:07;;;;;;;11.05;7.38;;;13.40;99.90;;;;;;4978911;28;20030;-83
2023/05/14 07:14:33;;;;;;;13.32;6.97;;;13.40;99.90;;;;;;4979996;28;20089;-85
2023/05/14 07:16:59;;;;;;;11.30;7.50;;;13.40;99.90;;;;;;4979902;28;20034;-86
2023/05/14 07:19:27;;;;;;;9.27;6.22;;;13.50;99.90;;;;;;4978506;28;20122;-72
2023/05/14 07:21:53;;;;;;;10.85;6.32;;;13.50;99.90;;;;;;4991739;28;20027;-85
2023/05/14 07:24:19;;;;;;;13.02;8.32;;;13.50;99.90;;;;;;4988903;28;20443;-78
2023/05/14 07:26:45;;;;;;;12.25;7.60;;;13.60;99.90;;;;;;4982182;28;20130;-82
2023/05/14 07:29:11;;;;;;;13.20;7.50;;;13.60;99.90;;;;;;4980902;28;20033;-80
2023/05/14 07:31:37;;;;;;;16.40;9.75;;;13.50;99.90;;;;;;4989546;28;20394;-80
2023/05/14 07:34:02;;;;;;;14.90;9.00;;;13.60;99.90;;;;;;4980575;28;20034;-80
2023/05/14 07:36:28;;;;;;;11.90;7.10;;;13.60;99.90;;;;;;4985348;28;20072;-78
2023/05/14 07:38:54;;;;;;;11.25;6.30;;;13.60;99.90;;;;;;4981028;28;20034;-77
2023/05/14 07:41:20;;;;;;;10.60;6.32;;;13.40;99.90;;;;;;4987980;28;20030;-79
2023/05/14 07:43:46;;;;;;;12.20;7.38;;;13.50;99.90;;;;;;4982448;28;20030;-81
2023/05/14 07:46:12;;;;;;;12.32;7.22;;;13.60;99.90;;;;;;5001535;28;20030;-73
2023/05/14 07:48:37;;;;;;;13.77;8.32;;;13.50;99.90;;;;;;4980064;28;20109;-74
2023/05/14 07:51:03;;;;;;;15.23;7.93;;;13.60;99.90;;;;;;4973963;28;20034;-74
2023/05/14 07:53:29;;;;;;;13.05;7.60;;;13.60;99.90;;;;;;4978324;28;20031;-72
2023/05/14 07:55:55;;;;;;;12.23;7.13;;;13.60;99.90;;;;;;4983157;28;20114;-79
2023/05/14 07:58:21;;;;;;;13.73;8.45;;;13.50;99.90;;;;;;4993710;28;20062;-73
2023/05/14 08:00:47;;;;;;;21.08;10.88;;;13.50;99.90;;;;;;4993359;28;20034;-73
2023/05/14 08:03:13;;;;;;;20.40;10.43;;;13.60;99.90;;;;;;4991013;28;20104;-78
2023/05/14 08:05:39;;;;;;;20.45;11.45;;;13.60;99.90;;;;;;4973689;28;20027;-81
2023/05/14 08:08:05;;;;;;;18.60;10.27;;;13.60;99.90;;;;;;4973542;28;20054;-77
2023/05/14 08:10:31;;;;;;;24.10;10.45;;;13.60;99.90;;;;;;4973624;28;20031;-81
2023/05/14 08:12:57;;;;;;;16.25;8.68;;;13.70;99.90;;;;;;4973657;28;20041;-78
2023/05/14 08:15:22;;;;;;;17.35;8.98;;;13.70;99.90;;;;;;4987774;28;20462;-78
2023/05/14 08:17:48;;;;;;;15.05;8.15;;;13.70;99.90;;;;;;4986493;28;20038;-75
2023/05/14 08:20:14;;;;;;;11.85;7.43;;;13.70;99.90;;;;;;4982966;28;20126;-76
2023/05/14 08:22:40;;;;;;;12.18;7.00;;;13.80;99.90;;;;;;4973710;28;20094;-80
2023/05/14 08:25:06;;;;;;;12.45;7.90;;;13.90;99.90;;;;;;4973547;28;20121;-77
2023/05/14 08:27:32;;;;;;;13.80;7.70;;;14.00;99.90;;;;;;4973613;28;20019;-81
2023/05/14 08:29:58;;;;;;;11.75;7.30;;;14.10;99.90;;;;;;4985127;28;20037;-79
2023/05/14 08:32:24;;;;;;;11.27;7.75;;;14.10;99.90;;;;;;4980043;28;20386;-73
2023/05/14 08:34:50;;;;;;;11.73;7.15;;;14.20;99.90;;;;;;4981460;28;20042;-76
2023/05/14 08:37:25;;;;;;;10.45;7.07;;;14.20;99.90;;;;;;4980722;28;20043;-82
2023/05/14 08:39:50;;;;;;;13.10;7.57;;;14.20;99.90;;;;;;4983565;28;20026;-76
2023/05/14 08:42:20;;;;;;;10.82;6.75;;;14.20;99.90;;;;;;4989440;28;20573;-85
2023/05/14 08:44:53;;;;;;;8.68;6.00;;;14.20;99.90;;;;;;4979710;28;20118;-77
2023/05/14 08:47:22;;;;;;;11.48;7.18;;;14.30;99.90;;;;;;4985647;28;20034;-82
2023/05/14 08:49:53;;;;;;;11.85;7.93;;;14.30;99.90;;;;;;4985474;28;20034;-81
2023/05/14 08:52:22;;;;;;;9.55;6.55;;;14.30;99.90;;;;;;4979909;28;20041;-76
2023/05/14 08:54:50;;;;;;;10.02;6.43;;;14.30;99.90;;;;;;4980454;28;20035;-75
2023/05/14 08:57:19;;;;;;;12.77;7.07;;;14.30;99.90;;;;;;4952630;28;20027;-84
2023/05/14 08:59:45;;;;;;;10.57;6.57;;;14.50;99.90;;;;;;4988160;28;20026;-74
2023/05/14 09:02:14;;;;;;;12.15;7.07;;;14.60;99.90;;;;;;4981626;28;20031;-76
2023/05/14 09:04:40;;;;;;;10.10;6.75;;;14.70;99.90;;;;;;4988203;28;20038;-77
2023/05/14 09:07:06;;;;;;;9.40;6.88;;;15.00;99.90;;;;;;4986294;28;20051;-82
2023/05/14 09:09:33;;;;;;;10.65;7.30;;;15.20;99.90;;;;;;4978394;28;20398;-81
2023/05/14 09:12:00;;;;;;;11.48;7.60;;;15.40;99.90;;;;;;4997111;28;20030;-75
2023/05/14 09:14:26;;;;;;;9.07;5.88;;;15.70;99.90;;;;;;4983885;28;20030;-80
2023/05/14 09:16:53;;;;;;;15.52;6.15;;;15.70;99.90;;;;;;4979766;28;20034;-75
2023/05/14 09:19:20;;;;;;;9.35;6.55;;;15.70;99.90;;;;;;4983412;28;20073;-81
2023/05/14 09:21:47;;;;;;;9.68;6.22;;;15.80;99.90;;;;;;4993125;28;20026;-78
2023/05/14 09:24:24;;;;;;;10.13;6.28;;;16.00;99.90;;;;;;4977025;28;20022;-81
2023/05/14 09:26:55;;;;;;;8.65;5.88;;;16.10;99.90;;;;;;4990555;28;20041;-78
2023/05/14 09:29:23;;;;;;;11.50;5.80;;;16.10;99.90;;;;;;4997156;28;20033;-75
2023/05/14 09:31:51;;;;;;;9.02;6.20;;;16.10;99.90;;;;;;4978717;28;20041;-81
2023/05/14 09:34:28;;;;;;;11.05;6.55;;;16.20;99.90;;;;;;4996710;28;20047;-74
2023/05/14 09:37:03;;;;;;;10.32;6.82;;;16.20;99.90;;;;;;4997213;28;20367;-78
2023/05/14 09:39:29;;;;;;;10.23;5.97;;;16.30;99.90;;;;;;4997951;28;20117;-79
2023/05/14 09:41:55;;;;;;;8.10;5.55;;;16.30;99.90;;;;;;4998190;28;20019;-82
2023/05/14 09:44:22;;;;;;;8.65;5.93;;;16.40;99.90;;;;;;4996676;28;20064;-84
2023/05/14 09:46:48;;;;;;;10.23;6.80;;;16.30;99.90;;;;;;4997267;28;20015;-77
2023/05/14 09:49:14;;;;;;;9.25;5.60;;;16.30;99.90;;;;;;4997223;28;20037;-77
2023/05/14 09:51:40;;;;;;;8.15;5.30;;;16.30;99.90;;;;;;4997367;28;20037;-85
2023/05/14 09:54:07;;;;;;;8.95;6.03;;;16.30;99.90;;;;;;4996412;28;20046;-80
2023/05/14 09:56:34;;;;;;;10.48;5.78;;;16.30;99.90;;;;;;4996038;28;20022;-73
2023/05/14 09:59:00;;;;;;;8.00;5.47;;;16.30;99.90;;;;;;4995648;28;20161;-73
2023/05/14 10:01:28;;;;;;;8.55;6.05;;;16.30;99.90;;;;;;4995843;28;20097;-80
2023/05/14 10:03:55;;;;;;;12.07;6.20;;;16.30;99.90;;;;;;4995646;28;20020;-84
2023/05/14 10:06:30;;;;;;;13.07;6.35;;;16.30;99.90;;;;;;4995209;28;20047;-82
2023/05/14 10:09:01;;;;;;;9.02;6.00;;;16.30;99.90;;;;;;4996207;28;20080;-79
2023/05/14 10:11:33;;;;;;;8.63;5.32;;;16.40;99.90;;;;;;4996325;28;20501;-74
2023/05/14 10:14:02;;;;;;;6.82;5.22;;;16.60;99.90;;;;;;4995504;28;20069;-75
2023/05/14 10:16:32;;;;;;;7.75;5.30;;;16.80;99.90;;;;;;4995228;28;20066;-76
2023/05/14 10:19:08;;;;;;;11.13;5.53;;;17.20;99.90;;;;;;4996179;28;20035;-74
2023/05/14 10:21:36;;;;;;;9.85;5.28;;;17.70;99.90;;;;;;4995375;28;20084;-81
2023/05/14 10:24:05;;;;;;;8.73;5.60;;;18.00;99.90;;;;;;4995767;28;20045;-83
2023/05/14 10:26:33;;;;;;;7.95;5.00;;;18.20;99.90;;;;;;4995546;28;20101;-75
2023/05/14 10:28:59;;;;;;;6.72;4.53;;;18.40;99.90;;;;;;4995931;28;20088;-82
2023/05/14 10:31:48;;;;;;;6.82;5.07;;;18.40;99.90;;;;;;4996427;28;20058;-81
2023/05/14 10:34:39;;;;;;;10.68;5.18;;;18.40;99.90;;;;;;4995695;28;20133;-85
2023/05/14 10:37:07;;;;;;;7.43;5.75;;;18.80;99.90;;;;;;4996251;28;20034;-82
2023/05/14 10:40:01;;;;;;;8.77;5.40;;;18.90;99.90;;;;;;4995620;28;20029;-78
2023/05/14 10:42:32;;;;;;;12.30;5.45;;;18.80;99.90;;;;;;4993137;28;20074;-86
2023/05/14 10:45:01;;;;;;;7.75;5.07;;;19.00;99.90;;;;;;4996566;28;20046;-75
2023/05/14 10:47:31;;;;;;;10.65;4.93;;;19.10;99.90;;;;;;4996379;28;20050;-82
2023/05/14 10:49:59;;;;;;;6.18;4.40;;;19.10;99.90;;;;;;4995647;28;20034;-80
2023/05/14 10:52:26;;;;;;;9.02;5.03;;;19.00;99.90;;;;;;4995671;28;20038;-87
2023/05/14 10:55:09;;;;;;;8.75;5.13;;;18.90;99.90;;;;;;4996108;28;20371;-76
2023/05/14 10:57:39;;;;;;;7.70;4.75;;;18.60;99.90;;;;;;4984522;28;20057;-82
2023/05/14 11:00:07;;;;;;;11.52;5.28;;;18.40;99.90;;;;;;4995689;28;20049;-84
2023/05/14 11:02:37;;;;;;;7.38;4.30;;;18.30;99.90;;;;;;4994955;28;20030;-79
2023/05/14 11:05:05;;;;;;;6.15;4.45;;;18.40;99.90;;;;;;4976800;28;20066;-74
2023/05/14 11:07:37;;;;;;;9.10;5.32;;;18.60;99.90;;;;;;4995197;28;20050;-85
2023/05/14 11:10:04;;;;;;;;;;;18.70;99.90;;;;;;4994529;28;20022;-82
2023/05/14 11:12:31;;;;;;;10.55;4.65;;;18.80;99.90;;;;;;4994421;28;19917;-75
2023/05/14 11:14:58;;;;;;;11.02;5.97;;;18.90;99.90;;;;;;4994272;28;20069;-82
2023/05/14 11:17:28;;;;;;;8.18;4.82;;;19.00;99.90;;;;;;4994368;28;20022;-81
2023/05/14 11:19:55;;;;;;;7.93;5.00;;;19.00;99.90;;;;;;4995256;28;20030;-85
2023/05/14 11:22:21;;;;;;;7.32;4.35;;;18.90;99.90;;;;;;4994156;28;20146;-83
2023/05/14 11:24:48;;;;;;;9.00;4.35;;;19.00;99.90;;;;;;4994715;28;20042;-77
2023/05/14 11:27:14;;;;;;;7.75;4.85;;;18.90;99.90;;;;;;4976463;28;20430;-80
2023/05/14 11:29:47;;;;;;;9.45;5.13;;;19.00;99.90;;;;;;4994070;28;20065;-76
2023/05/14 11:32:15;;;;;;;8.35;4.18;;;19.20;99.90;;;;;;4994666;28;20026;-79
2023/05/14 11:34:43;;;;;;;6.50;4.28;;;19.10;99.90;;;;;;4993666;28;20038;-80
2023/05/14 11:37:11;;;;;;;10.43;4.82;;;19.20;99.90;;;;;;4994741;28;20486;-84
2023/05/14 11:39:37;;;;;;;7.78;5.20;;;19.30;99.90;;;;;;4993584;28;20062;-75
2023/05/14 11:42:15;;;;;;;8.98;4.53;;;19.40;99.90;;;;;;4994200;28;20031;-76
2023/05/14 11:44:43;;;;;;;5.75;3.92;;;19.30;99.90;;;;;;4982900;28;20034;-76
2023/05/14 11:47:09;;;;;;;17.35;6.35;;;19.20;99.90;;;;;;4997691;28;20025;-78
2023/05/14 11:49:36;;;;;;;10.05;4.93;;;19.10;99.90;;;;;;5009977;28;20106;-82
2023/05/14 11:52:05;;;;;;;7.07;4.80;;;19.10;99.90;;;;;;4997923;28;20433;-78
2023/05/14 11:54:32;;;;;;;9.40;5.25;;;19.10;99.90;;;;;;4960633;28;20039;-82
2023/05/14 11:57:00;;;;;;;8.15;4.30;;;18.90;99.90;;;;;;4983424;28;20114;-79
2023/05/14 11:59:27;;;;;;;10.18;5.25;;;19.00;99.90;;;;;;4982335;28;20031;-80
2023/05/14 12:01:54;;;;;;;9.50;5.13;;;18.90;99.90;;;;;;4981516;28;20076;-82
2023/05/14 12:04:21;;;;;;;8.40;4.63;;;18.90;99.90;;;;;;4990018;28;20025;-75
2023/05/14 12:06:53;;;;;;;7.65;4.18;;;18.90;99.90;;;;;;4983270;28;20062;-77
2023/05/14 12:09:20;;;;;;;;;;;19.00;99.90;;;;;;4993387;28;20030;-76
2023/05/14 12:11:47;;;;;;;5.20;3.55;;;18.90;99.90;;;;;;4993083;28;19910;-77
2023/05/14 12:14:20;;;;;;;5.90;4.20;;;19.00;99.90;;;;;;4989452;28;20044;-79
2023/05/14 12:16:49;;;;;;;7.25;4.07;;;19.20;99.90;;;;;;4979229;28;20053;-80
2023/05/14 12:19:18;;;;;;;5.40;3.75;;;19.50;99.90;;;;;;4992036;28;20026;-81
2023/05/14 12:21:46;;;;;;;11.63;3.78;;;19.70;99.90;;;;;;4973702;28;20023;-78
2023/05/14 12:24:14;;;;;;;6.65;3.75;;;20.00;99.90;;;;;;4990330;28;20015;-83
2023/05/14 12:26:47;;;;;;;6.25;3.70;;;20.20;99.90;;;;;;4984743;28;20077;-81
2023/05/14 12:29:14;;;;;;;6.68;4.18;;;20.20;99.90;;;;;;4980235;28;20031;-83
2023/05/14 12:31:48;;;;;;;7.00;3.17;;;20.20;99.90;;;;;;4981096;28;20507;-83
2023/05/14 12:34:15;;;;;;;9.07;4.00;;;20.00;99.90;;;;;;4988502;28;20041;-82
2023/05/14 12:36:42;;;;;;;7.90;3.92;;;19.80;99.90;;;;;;4992712;28;20098;-78
2023/05/14 12:39:08;;;;;;;7.28;3.97;;;19.70;99.90;;;;;;4991969;28;20046;-76
2023/05/14 12:41:35;;;;;;;4.65;3.55;;;19.80;99.90;;;;;;4992891;28;20015;-75
2023/05/14 17:19:46;;;;;;;8.18;5.10;;;18.00;99.90;;;;;;5099847;23;20074;-78
2023/05/14 17:22:13;;;;;;;11.55;5.80;;;17.80;99.90;;;;;;4918540;29;20550;-76